Time;durP1;ratioP1;P1;durP2;ratioP2;P2;SDS_P1;SDS_P2;PMS_P1;PMS_P2;Temp;Humidity;BMP_temperature;BMP_pressure;BME280_temperature;BME280_humidity;BME280_pressure;Samples;Min_cycle;Max_cycle;Signal;HPM_P1;HPM_P2
2023/03/14 00:01:48;;;;;;;7.78;2.50;;;;;;;;;;4999714;28;20417;-81
2023/03/14 00:04:16;;;;;;;9.07;2.53;;;;;;;;;;4999755;28;20924;-81
2023/03/14 00:06:50;;;;;;;6.07;2.50;;;;;;;;;;5006269;28;20443;-81
2023/03/14 00:09:23;;;;;;;7.63;2.53;;;;;;;;;;5001969;28;20419;-81
2023/03/14 00:11:51;;;;;;;7.38;2.70;;;;;;;;;;5006110;28;20429;-81
2023/03/14 00:14:18;;;;;;;5.72;2.35;;;;;;;;;;5000450;28;20418;-80
2023/03/14 00:16:46;;;;;;;6.35;2.60;;;;;;;;;;5011584;28;20433;-81
2023/03/14 00:19:14;;;;;;;9.05;2.75;;;;;;;;;;5002817;28;21372;-80
2023/03/14 00:21:47;;;;;;;5.95;2.60;;;;;;;;;;5010258;28;20429;-81
2023/03/14 00:24:17;;;;;;;7.18;2.85;;;;;;;;;;5019374;28;20746;-80
2023/03/14 00:26:49;;;;;;;7.70;2.70;;;;;;;;;;5011051;28;20447;-81
2023/03/14 00:29:23;;;;;;;7.00;2.83;;;;;;;;;;5004034;28;20414;-81
2023/03/14 00:31:56;;;;;;;8.48;2.67;;;;;;;;;;5018620;28;20423;-80
2023/03/14 00:34:24;;;;;;;8.70;2.70;;;;;;;;;;5011199;28;20795;-81
2023/03/14 00:36:56;;;;;;;6.35;2.55;;;;;;;;;;5003249;28;20431;-81
2023/03/14 00:39:31;;;;;;;6.82;2.40;;;;;;;;;;5016663;28;20437;-81
2023/03/14 00:42:04;;;;;;;5.13;2.22;;;;;;;;;;5014921;28;20430;-81
2023/03/14 00:44:36;;;;;;;7.78;3.00;;;;;;;;;;5003860;28;20901;-81
2023/03/14 00:47:09;;;;;;;6.28;2.63;;;;;;;;;;5001283;28;20426;-81
2023/03/14 00:49:43;;;;;;;7.50;2.88;;;;;;;;;;5003845;28;20943;-80
2023/03/14 00:52:10;;;;;;;9.90;2.80;;;;;;;;;;5005769;28;20413;-81
2023/03/14 00:54:40;;;;;;;8.98;2.70;;;;;;;;;;5006492;28;20430;-80
2023/03/14 00:57:12;;;;;;;8.97;3.00;;;;;;;;;;5003098;28;20426;-80
2023/03/14 00:59:45;;;;;;;7.57;2.80;;;;;;;;;;5004063;28;20824;-81
2023/03/14 01:02:13;;;;;;;9.10;2.50;;;;;;;;;;5004250;28;20413;-81
2023/03/14 01:04:48;;;;;;;8.80;2.83;;;;;;;;;;5003703;28;20417;-81
2023/03/14 01:07:16;;;;;;;8.13;3.10;;;;;;;;;;5002658;28;20421;-81
2023/03/14 01:09:51;;;;;;;8.98;2.95;;;;;;;;;;5000099;28;20433;-81
2023/03/14 01:12:19;;;;;;;8.00;2.73;;;;;;;;;;5000652;28;20422;-81
2023/03/14 01:14:47;;;;;;;8.30;2.93;;;;;;;;;;5009643;28;20426;-80
2023/03/14 01:17:15;;;;;;;8.03;2.80;;;;;;;;;;5008986;28;20433;-81
2023/03/14 01:19:50;;;;;;;9.03;2.63;;;;;;;;;;5002537;28;20418;-81
2023/03/14 01:22:17;;;;;;;6.83;2.60;;;;;;;;;;5001054;28;20425;-81
2023/03/14 01:24:51;;;;;;;9.53;2.50;;;;;;;;;;5017239;28;20433;-81
2023/03/14 01:27:19;;;;;;;7.93;2.75;;;;;;;;;;5010603;28;20436;-81
2023/03/14 01:29:53;;;;;;;6.65;2.35;;;;;;;;;;5009848;28;20418;-81
2023/03/14 01:32:21;;;;;;;9.10;2.72;;;;;;;;;;5009201;28;20901;-81
2023/03/14 01:34:54;;;;;;;8.05;2.63;;;;;;;;;;5001063;28;20429;-81
2023/03/14 01:37:21;;;;;;;7.38;2.58;;;;;;;;;;5015888;28;20429;-81
2023/03/14 01:39:49;;;;;;;9.02;2.83;;;;;;;;;;5009203;28;20600;-81
2023/03/14 01:42:24;;;;;;;6.68;2.50;;;;;;;;;;5009702;28;20429;-80
2023/03/14 01:44:53;;;;;;;6.60;2.60;;;;;;;;;;5003589;28;20421;-81
2023/03/14 01:47:26;;;;;;;8.07;2.60;;;;;;;;;;5017712;28;20423;-81
2023/03/14 01:49:58;;;;;;;7.93;2.60;;;;;;;;;;5009206;28;20426;-81
2023/03/14 01:52:28;;;;;;;6.43;2.30;;;;;;;;;;5009391;28;20930;-81
2023/03/14 01:55:03;;;;;;;6.45;2.40;;;;;;;;;;5008109;28;20779;-81
2023/03/14 01:57:36;;;;;;;6.63;2.33;;;;;;;;;;5002295;28;20408;-80
2023/03/14 02:00:12;;;;;;;7.63;2.80;;;;;;;;;;5008816;28;20417;-81
2023/03/14 02:02:50;;;;;;;6.47;2.75;;;;;;;;;;5000850;28;20434;-81
2023/03/14 02:05:24;;;;;;;8.05;2.65;;;;;;;;;;5002316;28;20419;-81
2023/03/14 02:08:02;;;;;;;10.95;2.72;;;;;;;;;;5008166;28;20772;-80
2023/03/14 02:10:37;;;;;;;9.90;2.77;;;;;;;;;;5015088;28;20434;-81
2023/03/14 02:13:13;;;;;;;10.20;2.50;;;;;;;;;;5006513;28;20426;-81
2023/03/14 02:16:09;;;;;;;9.50;3.00;;;;;;;;;;5002650;28;20429;-81
2023/03/14 02:19:03;;;;;;;8.38;2.88;;;;;;;;;;4998258;28;20426;-81
2023/03/14 02:22:06;;;;;;;9.45;2.97;;;;;;;;;;5003901;28;20441;-81
2023/03/14 02:24:55;;;;;;;6.35;2.90;;;;;;;;;;5016020;28;20418;-81
2023/03/14 02:27:24;;;;;;;8.73;2.70;;;;;;;;;;5001196;28;20414;-81
2023/03/14 02:29:53;;;;;;;8.80;2.83;;;;;;;;;;5015082;28;20425;-80
2023/03/14 02:32:22;;;;;;;10.40;2.90;;;;;;;;;;5009167;28;20428;-81
2023/03/14 02:34:57;;;;;;;12.27;2.60;;;;;;;;;;5007558;28;20546;-81
2023/03/14 02:37:31;;;;;;;9.02;2.88;;;;;;;;;;5018098;28;20420;-81
2023/03/14 02:40:06;;;;;;;9.50;3.03;;;;;;;;;;5001184;28;20420;-81
2023/03/14 02:42:42;;;;;;;9.70;2.97;;;;;;;;;;5000864;28;20416;-81
2023/03/14 02:45:28;;;;;;;10.70;2.80;;;;;;;;;;4999860;28;20887;-81
2023/03/14 02:48:03;;;;;;;11.85;2.80;;;;;;;;;;5017317;28;20428;-81
2023/03/14 02:50:38;;;;;;;15.20;3.20;;;;;;;;;;5007646;28;20428;-81
2023/03/14 02:53:07;;;;;;;8.93;2.50;;;;;;;;;;5008020;28;20474;-81
2023/03/14 02:55:40;;;;;;;11.40;2.80;;;;;;;;;;5019374;28;20808;-81
2023/03/14 02:58:15;;;;;;;11.75;2.70;;;;;;;;;;5007154;28;20777;-81
2023/03/14 03:00:44;;;;;;;10.60;2.80;;;;;;;;;;5016092;28;20426;-81
2023/03/14 03:03:13;;;;;;;10.85;2.70;;;;;;;;;;5008023;28;20897;-81
2023/03/14 03:05:42;;;;;;;11.25;2.35;;;;;;;;;;4999133;28;20785;-81
2023/03/14 03:08:10;;;;;;;9.70;2.55;;;;;;;;;;5016953;28;20920;-81
2023/03/14 03:10:43;;;;;;;9.33;2.63;;;;;;;;;;4999813;28;20445;-81
2023/03/14 03:13:18;;;;;;;7.30;2.40;;;;;;;;;;5000407;28;20443;-81
2023/03/14 03:15:53;;;;;;;8.48;2.50;;;;;;;;;;5000070;28;20445;-81
2023/03/14 03:18:26;;;;;;;8.13;2.33;;;;;;;;;;5001055;28;20462;-81
2023/03/14 03:20:54;;;;;;;7.32;2.45;;;;;;;;;;5000327;28;20781;-81
2023/03/14 03:23:27;;;;;;;10.05;2.63;;;;;;;;;;5016153;28;20791;-81
2023/03/14 03:25:55;;;;;;;10.47;2.77;;;;;;;;;;4999253;28;20410;-81
2023/03/14 03:28:29;;;;;;;8.73;2.77;;;;;;;;;;5001573;28;20516;-82
2023/03/14 03:30:58;;;;;;;7.38;2.40;;;;;;;;;;5001654;28;20434;-81
2023/03/14 03:33:31;;;;;;;9.53;2.67;;;;;;;;;;4999827;28;20893;-81
2023/03/14 03:36:04;;;;;;;6.40;2.70;;;;;;;;;;4998786;28;20451;-81
2023/03/14 03:38:36;;;;;;;8.85;2.60;;;;;;;;;;5017013;28;20421;-81
2023/03/14 03:41:10;;;;;;;8.20;2.50;;;;;;;;;;5012915;28;20410;-81
2023/03/14 03:43:44;;;;;;;6.13;2.40;;;;;;;;;;4999241;28;20444;-81
2023/03/14 03:46:15;;;;;;;7.18;2.22;;;;;;;;;;5006282;28;20497;-81
2023/03/14 03:48:48;;;;;;;5.53;2.28;;;;;;;;;;4999105;28;20430;-81
2023/03/14 03:51:16;;;;;;;9.90;2.22;;;;;;;;;;4998299;28;20427;-81
2023/03/14 03:53:49;;;;;;;6.80;2.38;;;;;;;;;;4996511;28;20436;-81
2023/03/14 03:56:28;;;;;;;9.02;2.40;;;;;;;;;;5008328;28;20783;-81
2023/03/14 03:59:02;;;;;;;5.90;2.17;;;;;;;;;;5013675;28;20435;-81
2023/03/14 04:01:35;;;;;;;8.57;2.23;;;;;;;;;;5015273;28;20427;-80
2023/03/14 04:04:08;;;;;;;7.27;2.60;;;;;;;;;;5001867;28;20447;-81
2023/03/14 04:06:41;;;;;;;8.87;2.33;;;;;;;;;;5000783;28;20422;-81
2023/03/14 04:09:14;;;;;;;7.30;2.40;;;;;;;;;;4996005;28;20769;-81
2023/03/14 04:11:49;;;;;;;10.07;2.53;;;;;;;;;;4996900;28;20437;-81
2023/03/14 04:14:30;;;;;;;9.60;2.80;;;;;;;;;;5000388;28;20425;-80
2023/03/14 04:17:14;;;;;;;8.20;2.50;;;;;;;;;;5000050;28;20759;-81
2023/03/14 04:19:49;;;;;;;6.78;2.42;;;;;;;;;;5005586;28;20779;-81
2023/03/14 04:22:29;;;;;;;10.18;2.63;;;;;;;;;;5007691;28;20428;-81
2023/03/14 04:24:56;;;;;;;7.22;2.53;;;;;;;;;;4997761;28;20909;-81
2023/03/14 04:27:31;;;;;;;8.80;2.60;;;;;;;;;;4995718;28;20889;-81
2023/03/14 04:30:11;;;;;;;9.13;2.47;;;;;;;;;;5015849;28;20801;-81
2023/03/14 04:32:52;;;;;;;11.38;2.72;;;;;;;;;;4999681;28;20422;-81
2023/03/14 04:35:26;;;;;;;5.82;2.35;;;;;;;;;;5016106;28;20449;-81
2023/03/14 04:38:04;;;;;;;9.02;2.78;;;;;;;;;;5007734;28;20417;-81
2023/03/14 04:40:37;;;;;;;9.27;2.80;;;;;;;;;;5015116;28;20440;-81
2023/03/14 04:43:10;;;;;;;10.15;3.20;;;;;;;;;;5005571;28;20429;-81
2023/03/14 04:45:52;;;;;;;5.85;2.40;;;;;;;;;;5013461;28;20413;-81
2023/03/14 04:48:25;;;;;;;9.83;2.97;;;;;;;;;;5000487;28;20433;-81
2023/03/14 04:50:53;;;;;;;9.48;3.03;;;;;;;;;;5000821;28;20765;-81
2023/03/14 04:53:21;;;;;;;9.60;2.80;;;;;;;;;;5012922;28;20423;-81
2023/03/14 04:55:55;;;;;;;9.88;2.55;;;;;;;;;;5005799;28;21826;-81
2023/03/14 04:58:35;;;;;;;9.60;3.10;;;;;;;;;;5002875;28;20413;-81
2023/03/14 05:01:10;;;;;;;8.57;2.97;;;;;;;;;;5019112;28;20427;-81
2023/03/14 05:03:40;;;;;;;8.77;3.00;;;;;;;;;;5002288;28;20434;-80
2023/03/14 05:06:17;;;;;;;9.82;2.75;;;;;;;;;;5009779;28;20419;-80
2023/03/14 05:09:04;;;;;;;7.55;2.15;;;;;;;;;;5001083;28;20429;-81
2023/03/14 05:11:38;;;;;;;9.57;2.60;;;;;;;;;;5000898;28;20413;-81
2023/03/14 05:14:24;;;;;;;7.22;2.53;;;;;;;;;;5002416;28;20433;-80
2023/03/14 05:16:58;;;;;;;7.88;2.60;;;;;;;;;;5009351;28;20450;-81
2023/03/14 05:19:47;;;;;;;7.75;2.47;;;;;;;;;;5010392;28;20435;-81
2023/03/14 05:22:36;;;;;;;8.23;2.40;;;;;;;;;;5000519;28;20421;-81
2023/03/14 05:25:17;;;;;;;7.72;2.53;;;;;;;;;;5008313;28;20425;-80
2023/03/14 05:28:07;;;;;;;9.73;2.60;;;;;;;;;;5003185;28;20418;-80
2023/03/14 05:31:06;;;;;;;9.25;2.70;;;;;;;;;;4992856;28;20921;-81
2023/03/14 05:33:55;;;;;;;8.53;2.60;;;;;;;;;;5001041;28;20430;-80
2023/03/14 05:36:34;;;;;;;8.65;2.60;;;;;;;;;;4998682;28;20433;-81
2023/03/14 05:39:16;;;;;;;10.95;2.58;;;;;;;;;;5009952;28;20779;-80
2023/03/14 05:42:00;;;;;;;8.55;2.65;;;;;;;;;;5002161;28;20418;-82
2023/03/14 05:45:03;;;;;;;7.15;2.45;;;;;;;;;;5019601;28;20424;-81
2023/03/14 05:47:55;;;;;;;8.88;2.45;;;;;;;;;;5003349;28;20929;-82
2023/03/14 05:50:57;;;;;;;9.18;2.40;;;;;;;;;;4989948;28;20429;-80
2023/03/14 05:53:36;;;;;;;10.77;2.67;;;;;;;;;;5016243;28;20444;-81
2023/03/14 05:56:27;;;;;;;6.10;2.60;;;;;;;;;;5009761;28;20915;-81
2023/03/14 05:59:26;;;;;;;8.02;2.42;;;;;;;;;;4995241;28;20475;-80
2023/03/14 06:02:01;;;;;;;7.97;2.50;;;;;;;;;;5004620;28;20445;-81
2023/03/14 06:04:36;;;;;;;6.25;2.70;;;;;;;;;;4998706;28;20440;-81
2023/03/14 06:07:11;;;;;;;7.38;2.75;;;;;;;;;;5009696;28;20419;-81
2023/03/14 06:09:44;;;;;;;6.50;2.53;;;;;;;;;;5006628;28;21005;-81
2023/03/14 06:12:18;;;;;;;8.43;2.40;;;;;;;;;;5009498;28;20784;-80
2023/03/14 06:14:47;;;;;;;6.47;2.40;;;;;;;;;;4998251;28;20420;-81
2023/03/14 06:17:15;;;;;;;6.70;2.42;;;;;;;;;;5001085;28;20431;-81
2023/03/14 06:19:53;;;;;;;6.18;2.33;;;;;;;;;;5004378;28;20433;-81
2023/03/14 06:22:28;;;;;;;8.88;2.28;;;;;;;;;;5017687;28;20942;-81
2023/03/14 06:25:03;;;;;;;6.20;2.13;;;;;;;;;;5001943;28;20419;-81
2023/03/14 06:27:36;;;;;;;7.85;2.45;;;;;;;;;;5018078;28;20421;-82
2023/03/14 06:30:05;;;;;;;6.20;2.30;;;;;;;;;;5000634;28;20421;-81
2023/03/14 06:32:33;;;;;;;6.35;2.40;;;;;;;;;;5004321;28;20420;-81
2023/03/14 06:35:06;;;;;;;7.20;2.28;;;;;;;;;;5017998;28;20901;-81
2023/03/14 06:37:39;;;;;;;6.45;2.40;;;;;;;;;;5008023;28;20438;-81
2023/03/14 06:40:16;;;;;;;5.80;2.25;;;;;;;;;;5015811;28;20426;-81
2023/03/14 06:42:54;;;;;;;7.10;2.20;;;;;;;;;;5001187;28;20418;-81
2023/03/14 06:45:23;;;;;;;5.72;2.30;;;;;;;;;;5016402;28;20433;-81
2023/03/14 06:47:52;;;;;;;8.50;2.70;;;;;;;;;;5007752;28;20419;-82
2023/03/14 06:50:34;;;;;;;7.00;2.33;;;;;;;;;;5007234;28;20418;-81
2023/03/14 06:53:08;;;;;;;7.68;2.38;;;;;;;;;;5008148;28;20451;-82
2023/03/14 06:55:45;;;;;;;7.55;2.30;;;;;;;;;;5006772;28;20422;-81
2023/03/14 06:58:15;;;;;;;7.55;2.00;;;;;;;;;;4997065;28;20430;-81
2023/03/14 07:00:45;;;;;;;6.97;2.05;;;;;;;;;;5014098;28;20418;-81
2023/03/14 07:03:17;;;;;;;6.13;2.30;;;;;;;;;;5017312;28;20760;-81
2023/03/14 07:05:53;;;;;;;8.35;2.40;;;;;;;;;;5017060;28;20754;-81
2023/03/14 07:08:22;;;;;;;7.00;2.43;;;;;;;;;;4999942;28;20432;-80
2023/03/14 07:10:56;;;;;;;7.82;2.50;;;;;;;;;;5007883;28;20424;-81
2023/03/14 07:13:30;;;;;;;5.72;2.20;;;;;;;;;;5013678;28;20425;-80
2023/03/14 07:16:06;;;;;;;7.25;2.38;;;;;;;;;;5001510;28;20421;-81
2023/03/14 07:18:39;;;;;;;6.35;2.40;;;;;;;;;;5017403;28;20746;-81
2023/03/14 07:21:12;;;;;;;7.25;2.30;;;;;;;;;;5015149;28;20433;-81
2023/03/14 07:23:47;;;;;;;9.15;2.30;;;;;;;;;;5007534;28;20781;-81
2023/03/14 07:26:19;;;;;;;7.47;2.10;;;;;;;;;;5018911;28;20417;-82
2023/03/14 07:28:51;;;;;;;7.22;2.15;;;;;;;;;;5002043;28;20449;-81
2023/03/14 07:31:24;;;;;;;5.55;2.20;;;;;;;;;;4995546;28;20437;-82
2023/03/14 07:33:57;;;;;;;8.63;2.63;;;;;;;;;;5005273;28;20447;-81
2023/03/14 07:36:29;;;;;;;7.25;2.20;;;;;;;;;;5014771;28;20751;-82
2023/03/14 07:39:05;;;;;;;4.72;1.90;;;;;;;;;;5004143;28;20431;-81
2023/03/14 07:41:45;;;;;;;8.02;2.35;;;;;;;;;;5000491;28;20438;-81
2023/03/14 07:44:41;;;;;;;6.00;2.03;;;;;;;;;;5018678;28;20516;-82
2023/03/14 07:47:08;;;;;;;5.30;1.87;;;;;;;;;;5000187;28;20518;-81
2023/03/14 07:49:41;;;;;;;4.57;1.90;;;;;;;;;;4999875;28;20428;-81
2023/03/14 07:52:14;;;;;;;8.57;2.40;;;;;;;;;;5005913;28;20434;-81
2023/03/14 07:54:43;;;;;;;5.30;2.00;;;;;;;;;;5004184;28;20440;-81
2023/03/14 07:57:16;;;;;;;6.05;1.90;;;;;;;;;;4998031;28;20443;-81
2023/03/14 07:59:49;;;;;;;5.80;1.88;;;;;;;;;;4999752;28;20978;-81
2023/03/14 08:02:22;;;;;;;5.90;1.83;;;;;;;;;;5006077;28;20437;-81
2023/03/14 08:04:49;;;;;;;5.05;1.70;;;;;;;;;;4998904;28;20413;-81
2023/03/14 08:07:22;;;;;;;4.45;1.40;;;;;;;;;;5002902;28;20441;-80
2023/03/14 08:09:51;;;;;;;12.85;5.15;;;;;;;;;;4996351;28;20437;-80
2023/03/14 08:12:20;;;;;;;4.80;1.65;;;;;;;;;;5001665;28;20436;-83
2023/03/14 08:14:48;;;;;;;7.13;1.73;;;;;;;;;;4997560;28;20449;-81
2023/03/14 08:17:20;;;;;;;5.32;1.70;;;;;;;;;;4977112;28;20440;-81
2023/03/14 08:19:53;;;;;;;7.18;1.88;;;;;;;;;;4973256;28;22260;-81
2023/03/14 08:22:26;;;;;;;4.95;1.45;;;;;;;;;;4976920;28;20417;-81
2023/03/14 08:25:00;;;;;;;4.95;1.77;;;;;;;;;;4976352;28;20459;-81
2023/03/14 08:27:33;;;;;;;6.75;2.00;;;;;;;;;;4977949;28;20660;-81
2023/03/14 08:30:01;;;;;;;7.35;2.00;;;;;;;;;;4990314;28;20445;-81
2023/03/14 08:32:28;;;;;;;4.57;2.13;;;;;;;;;;4973682;28;20441;-81
2023/03/14 08:35:01;;;;;;;7.47;2.22;;;;;;;;;;4978460;28;20434;-82
2023/03/14 08:37:34;;;;;;;6.35;2.30;;;;;;;;;;4976937;28;20434;-81
2023/03/14 08:40:09;;;;;;;6.55;2.50;;;;;;;;;;4984059;28;20434;-81
2023/03/14 08:42:42;;;;;;;6.00;2.40;;;;;;;;;;4974943;28;20527;-81
2023/03/14 08:45:12;;;;;;;6.53;2.53;;;;;;;;;;4976047;28;20439;-80
2023/03/14 08:47:45;;;;;;;8.38;2.50;;;;;;;;;;5003659;28;20427;-81
2023/03/14 08:50:18;;;;;;;7.95;2.65;;;;;;;;;;4982912;28;20422;-82
2023/03/14 08:52:51;;;;;;;8.32;2.80;;;;;;;;;;4979890;28;21075;-82
2023/03/14 08:55:20;;;;;;;8.43;3.10;;;;;;;;;;4976707;28;20426;-81
2023/03/14 08:57:53;;;;;;;7.68;3.22;;;;;;;;;;4988804;28;20436;-80
2023/03/14 09:00:25;;;;;;;9.63;3.33;;;;;;;;;;4974877;28;20453;-80
2023/03/14 09:02:53;;;;;;;8.35;3.38;;;;;;;;;;4975399;28;20937;-82
2023/03/14 09:05:26;;;;;;;10.02;3.53;;;;;;;;;;4978790;28;20439;-81
2023/03/14 09:07:54;;;;;;;10.18;3.50;;;;;;;;;;4992359;28;20421;-81
2023/03/14 09:10:23;;;;;;;8.70;3.53;;;;;;;;;;4983894;28;20444;-81
2023/03/14 09:12:51;;;;;;;8.93;3.50;;;;;;;;;;4971095;28;20424;-79
2023/03/14 09:15:23;;;;;;;8.25;3.53;;;;;;;;;;4974885;28;20440;-80
2023/03/14 09:17:56;;;;;;;8.18;3.30;;;;;;;;;;4979905;28;20447;-81
2023/03/14 09:20:29;;;;;;;8.23;3.10;;;;;;;;;;5001731;28;21113;-81
2023/03/14 09:23:02;;;;;;;8.65;3.53;;;;;;;;;;4977289;28;20420;-82
2023/03/14 09:25:36;;;;;;;10.15;3.40;;;;;;;;;;4983447;28;20917;-81
2023/03/14 09:28:09;;;;;;;9.40;2.88;;;;;;;;;;4973791;28;20857;-82
2023/03/14 09:30:43;;;;;;;10.65;3.25;;;;;;;;;;4979306;28;20438;-81
2023/03/14 09:33:10;;;;;;;8.30;3.50;;;;;;;;;;4976233;28;20408;-81
2023/03/14 09:35:43;;;;;;;10.15;3.25;;;;;;;;;;4975804;28;21218;-81
2023/03/14 09:38:11;;;;;;;8.82;3.03;;;;;;;;;;4997690;28;20919;-81
2023/03/14 09:40:45;;;;;;;7.72;2.90;;;;;;;;;;4982899;28;20437;-81
2023/03/14 09:43:14;;;;;;;9.68;2.83;;;;;;;;;;4986195;28;20429;-81
2023/03/14 09:45:42;;;;;;;7.43;2.60;;;;;;;;;;5005466;28;20447;-81
2023/03/14 09:48:17;;;;;;;6.65;2.70;;;;;;;;;;5001229;28;20425;-81
2023/03/14 09:50:52;;;;;;;6.95;2.70;;;;;;;;;;4991742;28;20424;-81
2023/03/14 09:53:26;;;;;;;7.20;2.63;;;;;;;;;;4973902;28;20432;-82
2023/03/14 09:56:00;;;;;;;5.95;2.58;;;;;;;;;;4984842;28;20424;-80
2023/03/14 09:58:28;;;;;;;8.18;2.95;;;;;;;;;;4997867;28;20429;-81
2023/03/14 10:01:02;;;;;;;9.02;2.70;;;;;;;;;;4984968;28;20428;-81
2023/03/14 10:03:32;;;;;;;7.17;2.70;;;;;;;;;;4982814;28;20409;-81
2023/03/14 10:06:00;;;;;;;9.07;2.90;;;;;;;;;;5000588;28;20436;-81
2023/03/14 10:08:33;;;;;;;10.35;3.10;;;;;;;;;;4990258;28;22246;-81
2023/03/14 10:11:03;;;;;;;7.93;2.65;;;;;;;;;;5005556;28;20420;-81
2023/03/14 10:13:35;;;;;;;8.17;2.50;;;;;;;;;;4998417;28;21476;-80
2023/03/14 10:16:09;;;;;;;7.40;2.63;;;;;;;;;;5004261;28;20439;-80
2023/03/14 10:18:45;;;;;;;8.68;2.70;;;;;;;;;;5000194;28;20475;-80
2023/03/14 10:21:19;;;;;;;8.32;2.70;;;;;;;;;;4985465;28;20443;-81
2023/03/14 10:23:51;;;;;;;5.77;2.60;;;;;;;;;;4986279;28;20428;-80
2023/03/14 10:26:24;;;;;;;8.65;3.05;;;;;;;;;;4985638;28;20812;-81
2023/03/14 10:29:02;;;;;;;8.60;2.80;;;;;;;;;;4982419;28;20423;-81
2023/03/14 10:31:46;;;;;;;8.53;3.07;;;;;;;;;;4996056;28;20440;-81
2023/03/14 10:34:16;;;;;;;9.85;3.58;;;;;;;;;;4999166;28;20447;-81
2023/03/14 10:36:53;;;;;;;11.10;2.88;;;;;;;;;;4984913;28;20435;-80
2023/03/14 10:39:31;;;;;;;8.07;2.60;;;;;;;;;;5005313;28;20435;-81
2023/03/14 10:42:07;;;;;;;6.10;2.30;;;;;;;;;;4998627;28;21022;-81
2023/03/14 10:44:36;;;;;;;5.47;1.70;;;;;;;;;;4999387;28;20440;-80
2023/03/14 10:47:04;;;;;;;2.83;1.30;;;;;;;;;;4982830;28;20431;-81
2023/03/14 10:49:33;;;;;;;2.40;1.30;;;;;;;;;;5003371;28;20554;-82
2023/03/14 10:52:14;;;;;;;4.25;1.50;;;;;;;;;;4984935;28;20471;-81
2023/03/14 10:54:47;;;;;;;3.13;1.50;;;;;;;;;;5002816;28;20437;-81
2023/03/14 10:57:21;;;;;;;3.03;1.05;;;;;;;;;;4992547;28;20445;-82
2023/03/14 10:59:56;;;;;;;1.98;1.00;;;;;;;;;;4984089;28;20436;-84
2023/03/14 11:02:35;;;;;;;2.70;1.00;;;;;;;;;;5003480;28;20431;-81
2023/03/14 11:05:16;;;;;;;2.97;1.00;;;;;;;;;;4992632;28;20423;-81
2023/03/14 11:07:49;;;;;;;4.38;1.50;;;;;;;;;;4991100;28;20419;-81
2023/03/14 11:10:25;;;;;;;2.47;1.30;;;;;;;;;;5012821;28;20431;-81
2023/03/14 11:13:06;;;;;;;1.80;0.95;;;;;;;;;;4993075;28;20427;-81
2023/03/14 11:15:35;;;;;;;2.53;1.17;;;;;;;;;;5011402;28;20436;-81
2023/03/14 11:18:17;;;;;;;2.53;0.88;;;;;;;;;;4994768;28;20891;-81
2023/03/14 11:20:53;;;;;;;2.03;1.00;;;;;;;;;;4993975;28;20431;-81
2023/03/14 11:23:32;;;;;;;2.72;1.10;;;;;;;;;;4997307;28;20422;-82
2023/03/14 11:26:02;;;;;;;1.55;1.00;;;;;;;;;;4997484;28;20420;-80
2023/03/14 11:28:36;;;;;;;1.13;0.50;;;;;;;;;;4995509;28;21611;-82
2023/03/14 11:31:12;;;;;;;1.30;0.60;;;;;;;;;;5013623;28;20910;-81
2023/03/14 11:33:48;;;;;;;1.10;0.60;;;;;;;;;;5014642;28;20439;-85
2023/03/14 11:36:22;;;;;;;1.48;0.45;;;;;;;;;;4992956;28;20433;-81
2023/03/14 11:38:57;;;;;;;0.90;0.55;;;;;;;;;;4991582;28;20432;-82
2023/03/14 11:41:33;;;;;;;1.00;0.57;;;;;;;;;;4990923;28;20442;-80
2023/03/14 11:44:11;;;;;;;2.20;0.80;;;;;;;;;;4995722;28;20437;-81
2023/03/14 11:46:47;;;;;;;1.73;0.63;;;;;;;;;;5014071;28;20469;-80
2023/03/14 11:49:17;;;;;;;1.55;0.80;;;;;;;;;;5023675;28;20425;-82
2023/03/14 11:51:52;;;;;;;2.50;0.65;;;;;;;;;;4993308;28;20420;-81
2023/03/14 11:54:29;;;;;;;3.30;0.80;;;;;;;;;;5000802;28;20532;-80
2023/03/14 11:57:04;;;;;;;4.35;0.63;;;;;;;;;;5000401;28;20435;-81
2023/03/14 11:59:42;;;;;;;2.85;0.80;;;;;;;;;;4995392;28;20418;-81
2023/03/14 12:02:20;;;;;;;2.38;0.73;;;;;;;;;;4993781;28;22103;-81
2023/03/14 12:04:53;;;;;;;3.15;0.80;;;;;;;;;;4992730;28;20424;-81
2023/03/14 12:07:30;;;;;;;3.93;1.10;;;;;;;;;;4997420;28;20419;-80
2023/03/14 12:09:58;;;;;;;3.13;0.88;;;;;;;;;;4999112;28;20658;-80
2023/03/14 12:12:28;;;;;;;4.68;1.00;;;;;;;;;;4999862;28;22261;-79
2023/03/14 12:14:58;;;;;;;3.83;1.00;;;;;;;;;;5001805;28;20416;-81
2023/03/14 12:17:28;;;;;;;5.20;1.30;;;;;;;;;;4974963;28;20946;-81
2023/03/14 12:20:03;;;;;;;4.03;1.58;;;;;;;;;;4996550;28;20436;-82
2023/03/14 12:22:37;;;;;;;3.80;1.60;;;;;;;;;;5003436;28;20432;-80
2023/03/14 12:25:15;;;;;;;3.85;1.40;;;;;;;;;;5000857;28;20424;-82
2023/03/14 12:27:50;;;;;;;4.30;1.70;;;;;;;;;;5002169;28;20807;-81
2023/03/14 12:30:29;;;;;;;4.20;1.20;;;;;;;;;;5026665;28;20756;-81
2023/03/14 12:33:27;;;;;;;3.83;1.38;;;;;;;;;;5027144;28;21120;-81
2023/03/14 12:36:12;;;;;;;3.88;1.40;;;;;;;;;;4913358;29;20442;-81
2023/03/14 12:39:03;;;;;;;6.00;1.60;;;;;;;;;;4986362;28;20440;-81
2023/03/14 12:41:39;;;;;;;5.07;1.17;;;;;;;;;;4996310;28;21135;-81
2023/03/14 12:44:30;;;;;;;5.28;1.27;;;;;;;;;;5010022;28;20601;-82
2023/03/14 12:47:00;;;;;;;5.45;1.30;;;;;;;;;;4994706;28;20444;-81
2023/03/14 12:49:33;;;;;;;6.82;1.25;;;;;;;;;;4997069;28;20422;-81
2023/03/14 12:52:14;;;;;;;8.90;1.35;;;;;;;;;;5008214;28;20431;-82
2023/03/14 12:54:49;;;;;;;7.90;1.50;;;;;;;;;;4993213;28;20427;-81
2023/03/14 12:57:25;;;;;;;8.48;1.88;;;;;;;;;;4996385;28;20427;-81
2023/03/14 12:59:55;;;;;;;7.57;2.08;;;;;;;;;;4995554;28;20420;-81
2023/03/14 13:02:39;;;;;;;7.35;1.45;;;;;;;;;;4994279;28;21918;-81
2023/03/14 13:05:14;;;;;;;8.80;1.60;;;;;;;;;;5003835;28;20426;-81
2023/03/14 13:08:02;;;;;;;7.97;1.40;;;;;;;;;;5024081;28;20516;-81
2023/03/14 13:10:30;;;;;;;7.83;1.50;;;;;;;;;;4994364;28;20414;-81
2023/03/14 13:13:02;;;;;;;7.78;1.50;;;;;;;;;;4996881;28;20805;-81
2023/03/14 13:15:39;;;;;;;11.20;1.70;;;;;;;;;;4993045;28;20438;-81
2023/03/14 13:18:15;;;;;;;10.40;2.10;;;;;;;;;;4952646;28;20428;-81
2023/03/14 13:20:52;;;;;;;8.40;1.35;;;;;;;;;;4975180;28;20447;-81
2023/03/14 13:23:26;;;;;;;8.23;1.52;;;;;;;;;;4987732;28;20922;-80
2023/03/14 13:26:00;;;;;;;8.98;1.38;;;;;;;;;;4987315;28;20475;-81
2023/03/14 13:28:32;;;;;;;12.90;3.10;;;;;;;;;;4989518;28;20424;-80
2023/03/14 13:31:06;;;;;;;9.37;1.23;;;;;;;;;;4988890;28;20429;-81
2023/03/14 13:33:41;;;;;;;7.97;1.30;;;;;;;;;;4988136;28;20447;-80
2023/03/14 13:36:14;;;;;;;13.00;1.50;;;;;;;;;;4986165;28;20433;-81
2023/03/14 13:38:42;;;;;;;9.40;1.30;;;;;;;;;;4983572;28;20832;-82
2023/03/14 13:41:15;;;;;;;9.17;1.83;;;;;;;;;;4988724;28;20477;-81
2023/03/14 13:43:48;;;;;;;10.17;1.43;;;;;;;;;;4987601;28;20462;-81
2023/03/14 13:46:25;;;;;;;11.10;1.73;;;;;;;;;;4990226;28;20432;-82
2023/03/14 13:48:55;;;;;;;10.30;1.70;;;;;;;;;;4981695;28;20428;-81
2023/03/14 13:51:31;;;;;;;12.47;1.77;;;;;;;;;;4985485;28;20903;-81
2023/03/14 13:54:04;;;;;;;9.17;1.50;;;;;;;;;;4985671;28;20435;-81
2023/03/14 13:56:36;;;;;;;9.23;1.90;;;;;;;;;;4991638;28;20440;-81
2023/03/14 13:59:21;;;;;;;11.48;1.83;;;;;;;;;;4986826;28;20420;-81
2023/03/14 14:01:50;;;;;;;9.68;1.63;;;;;;;;;;4999468;28;20440;-81
2023/03/14 14:04:26;;;;;;;11.25;1.77;;;;;;;;;;4978244;28;20440;-80
2023/03/14 14:06:55;;;;;;;12.68;1.45;;;;;;;;;;4979276;28;20428;-82
2023/03/14 14:09:29;;;;;;;10.73;1.70;;;;;;;;;;4991246;28;20963;-81
2023/03/14 14:12:05;;;;;;;13.30;2.13;;;;;;;;;;4980554;28;20654;-79
2023/03/14 14:14:41;;;;;;;12.73;2.20;;;;;;;;;;4985423;28;20429;-79
2023/03/14 14:17:15;;;;;;;9.83;1.57;;;;;;;;;;4958741;28;20487;-80
2023/03/14 14:19:50;;;;;;;11.77;1.60;;;;;;;;;;4981184;28;20408;-80
2023/03/14 14:22:18;;;;;;;10.85;1.73;;;;;;;;;;4984505;28;20444;-81
2023/03/14 14:24:52;;;;;;;7.25;1.25;;;;;;;;;;4985100;28;20433;-82
2023/03/14 14:27:25;;;;;;;11.43;1.50;;;;;;;;;;4989926;28;20432;-83
2023/03/14 14:30:00;;;;;;;9.82;1.67;;;;;;;;;;4989554;28;20429;-80
2023/03/14 14:32:37;;;;;;;11.63;1.73;;;;;;;;;;4982732;28;20428;-81
2023/03/14 14:35:07;;;;;;;9.77;1.60;;;;;;;;;;4988931;28;21077;-81
2023/03/14 14:37:41;;;;;;;9.32;1.20;;;;;;;;;;4981253;28;21906;-81
2023/03/14 14:40:10;;;;;;;8.27;1.42;;;;;;;;;;4988124;28;20416;-81
2023/03/14 14:42:43;;;;;;;8.45;1.42;;;;;;;;;;4984035;28;20421;-81
2023/03/14 14:45:18;;;;;;;9.35;1.60;;;;;;;;;;4987831;28;20911;-82
2023/03/14 14:47:51;;;;;;;7.15;1.20;;;;;;;;;;4979449;28;20427;-81
2023/03/14 14:50:30;;;;;;;7.93;1.20;;;;;;;;;;4986658;28;20413;-81
2023/03/14 14:53:04;;;;;;;8.02;1.10;;;;;;;;;;4983987;28;20432;-81
2023/03/14 14:55:33;;;;;;;6.15;1.33;;;;;;;;;;4989473;28;20428;-83
2023/03/14 14:58:12;;;;;;;6.05;1.30;;;;;;;;;;4984678;28;20787;-81
2023/03/14 15:00:50;;;;;;;7.28;1.10;;;;;;;;;;4984339;28;20428;-80
2023/03/14 15:03:26;;;;;;;8.25;1.30;;;;;;;;;;4982734;28;20440;-81
2023/03/14 15:06:00;;;;;;;8.05;1.30;;;;;;;;;;4982164;28;20777;-83
2023/03/14 15:08:28;;;;;;;8.87;1.23;;;;;;;;;;4981120;28;20820;-81
2023/03/14 15:11:01;;;;;;;8.18;1.52;;;;;;;;;;4981700;28;21153;-82
2023/03/14 15:13:34;;;;;;;12.05;1.67;;;;;;;;;;4978253;28;20439;-82
2023/03/14 15:16:09;;;;;;;8.82;1.05;;;;;;;;;;4954661;28;20441;-81
2023/03/14 15:18:42;;;;;;;7.37;1.00;;;;;;;;;;4973633;28;22516;-81
2023/03/14 15:21:17;;;;;;;6.50;1.05;;;;;;;;;;4977837;28;20436;-81
2023/03/14 15:23:50;;;;;;;4.82;1.10;;;;;;;;;;4979146;28;20432;-81